Webcam Rollhalt 06

Webcam Rollhalt 24

 

Flugplatz - Wetter - Augsburg

[Quelle: ADDS]
METAR
EDMA 161120Z 25008KT 7000 -SN FEW011 SCT032 OVC047 M02/M04 Q1024 =
EDMA 161100Z 1612/1621 26008KT 9000 BKN030 PROB30 TEMPO 1612/1614 4000 -SN BECMG 1616/1618 VRB03KT
TAF
EDMA 161100Z 1612/1621 26008KT 9000 BKN030 PROB30 TEMPO 1612/1614 4000 -SN BECMG 1616/1618 VRB03KT =
SR / SS: 07:02 / 15:52 UTC (Augsburg 2021-01-16)

Flugplatz - Wetter - Laupheim

[Quelle: ADDS]
METAR
ETHL 161120Z 23006KT 7000 FEW010 BKN040 M03/M05 Q1024 WHT =
TAF
SR / SS: 07:06 / 15:57 UTC (Laupheim 2021-01-16)

Flugplatz - Wetter - Memmingen

[Quelle: ADDS]
METAR
EDJA 161120Z 23010KT 9999 BKN041 M04/M06 Q1024 =
EDJA 161100Z 1612/1621 23007KT 9000 OVC035
TAF
EDJA 161100Z 1612/1621 23007KT 9000 OVC035 =
SR / SS: 07:01 / 15:56 UTC (Memmingen 2021-01-16)

Flugplatz - Wetter - Neuburg/Donau

[Quelle: ADDS]
METAR
ETSN 161120Z 28009KT 9999 FEW015 SCT025 BKN040 M01/M06 Q1024 BLU =
TAF
SR / SS: 07:00 / 15:49 UTC (Neuburg 2021-01-16)

Flugplatz - Wetter - Stuttgart

[Quelle: ADDS]
METAR
EDDS 161120Z 25006KT 220V280 9999 FEW016 BKN028 01/M05 Q1025 NOSIG =
EDDS 161100Z 1612/1712 25005KT 9999 FEW020 BECMG 1616/1618 VRB03KT BECMG 1622/1624 4000 -SN BKN008 PROB30 TEMPO 1700/1705 1000 SN BKN003 TEMPO 1705/1712 2000 BKN003 BECMG 1711/1712 29005KT
TAF
EDDS 161100Z 1612/1712 25005KT 9999 FEW020 BECMG 1616/1618 VRB03KT BECMG 1622/1624 4000 -SN BKN008 PROB30 TEMPO 1700/1705 1000 SN BKN003 TEMPO 1705/1712 2000 BKN003 BECMG 1711/1712 29005KT =
SR / SS: 07:08 / 15:57 UTC (Stuttgart 2021-01-16)

Flugplatz - Wetter - Niederstetten

[Quelle: ADDS]
METAR
ETHN 161120Z 29005KT 9999 SCT010 BKN025 M03/M06 Q1024 BLU =
TAF
SR / SS: 07:10 / 15:52 UTC (Niederstetten 2021-01-16)